Time;durP1;ratioP1;P1;durP2;ratioP2;P2;SDS_P1;SDS_P2;PMS_P1;PMS_P2;Temp;Humidity;BMP_temperature;BMP_pressure;BME280_temperature;BME280_humidity;BME280_pressure;Samples;Min_cycle;Max_cycle;Signal;HPM_P1;HPM_P2
2020/12/13 00:02:14;;;;;;;52.58;34.38;;;4.70;99.90;;;;;;5054362;28;20047;-71
2020/12/13 00:04:40;;;;;;;52.38;34.65;;;4.70;99.90;;;;;;5055966;28;20021;-71
2020/12/13 00:07:06;;;;;;;54.05;35.78;;;4.70;99.90;;;;;;5055650;28;20126;-70
2020/12/13 00:09:32;;;;;;;51.13;34.38;;;4.60;99.90;;;;;;5057651;28;20037;-70
2020/12/13 00:12:02;;;;;;;51.88;34.58;;;4.70;99.90;;;;;;5055260;28;20545;-72
2020/12/13 00:14:27;;;;;;;53.35;34.65;;;4.70;99.90;;;;;;5055118;28;20455;-71
2020/12/13 00:16:53;;;;;;;53.45;33.83;;;4.70;99.90;;;;;;5053780;28;20534;-71
2020/12/13 00:19:18;;;;;;;52.33;34.08;;;4.70;99.90;;;;;;5053491;28;20054;-71
2020/12/13 00:21:49;;;;;;;50.67;34.42;;;4.70;99.90;;;;;;5053921;28;20037;-70
2020/12/13 00:24:14;;;;;;;51.75;34.85;;;4.70;99.90;;;;;;5054404;28;20024;-71
2020/12/13 00:26:41;;;;;;;53.72;34.40;;;4.80;99.90;;;;;;5055748;28;20136;-72
2020/12/13 00:29:06;;;;;;;50.03;33.67;;;4.80;99.90;;;;;;5054807;28;20458;-70
2020/12/13 00:31:32;;;;;;;47.95;31.83;;;4.80;99.90;;;;;;5055622;28;20029;-72
2020/12/13 00:33:57;;;;;;;46.53;31.45;;;4.90;99.90;;;;;;5055323;28;20028;-71
2020/12/13 00:36:23;;;;;;;50.60;32.80;;;4.90;99.90;;;;;;5054854;28;20429;-72
2020/12/13 00:38:50;;;;;;;46.58;32.20;;;5.00;99.90;;;;;;5054655;28;20033;-71
2020/12/13 00:41:16;;;;;;;51.40;33.15;;;5.10;99.90;;;;;;5054673;28;20025;-72
2020/12/13 00:43:41;;;;;;;51.55;33.28;;;5.20;99.90;;;;;;5022491;28;20025;-72
2020/12/13 00:46:07;;;;;;;50.42;32.05;;;5.30;99.90;;;;;;5055154;28;20103;-71
2020/12/13 00:48:33;;;;;;;52.42;33.72;;;5.30;99.90;;;;;;5054069;28;20032;-71
2020/12/13 00:50:58;;;;;;;53.90;33.65;;;5.30;99.90;;;;;;5055799;28;20025;-70
2020/12/13 00:53:24;;;;;;;54.60;34.03;;;5.40;99.90;;;;;;5055182;28;20108;-71
2020/12/13 00:55:49;;;;;;;52.58;33.90;;;5.40;99.90;;;;;;5053261;28;20031;-70
2020/12/13 00:58:15;;;;;;;47.80;34.60;;;5.40;99.90;;;;;;5053110;28;20378;-70
2020/12/13 01:00:41;;;;;;;50.35;33.80;;;5.40;99.90;;;;;;5054474;28;20029;-71
2020/12/13 01:03:06;;;;;;;48.47;33.10;;;5.40;99.90;;;;;;5055143;28;20025;-71
2020/12/13 01:05:32;;;;;;;51.45;32.08;;;5.40;99.90;;;;;;5055806;28;20058;-71
2020/12/13 01:07:57;;;;;;;57.97;34.53;;;5.50;99.90;;;;;;5054028;28;20041;-72
2020/12/13 01:10:23;;;;;;;54.13;34.13;;;5.50;99.90;;;;;;5037058;28;20056;-71
2020/12/13 01:12:49;;;;;;;52.55;32.38;;;5.50;99.90;;;;;;5053475;28;20017;-70
2020/12/13 01:15:16;;;;;;;55.38;32.05;;;5.60;99.90;;;;;;5054740;28;20036;-70
2020/12/13 01:17:46;;;;;;;55.17;32.65;;;5.60;99.90;;;;;;5054040;28;20017;-70
2020/12/13 01:20:13;;;;;;;50.58;33.05;;;5.60;99.90;;;;;;5054473;28;20025;-72
2020/12/13 01:22:39;;;;;;;57.70;34.30;;;5.60;99.90;;;;;;5055665;28;20037;-70
2020/12/13 01:25:09;;;;;;;57.20;32.85;;;5.60;99.90;;;;;;5054836;28;20083;-70
2020/12/13 01:27:36;;;;;;;64.78;33.38;;;5.60;99.90;;;;;;5054465;28;20032;-70
2020/12/13 01:30:05;;;;;;;64.82;33.72;;;5.60;99.90;;;;;;5054323;28;20355;-71
2020/12/13 01:32:35;;;;;;;74.35;35.00;;;5.60;99.90;;;;;;5054178;28;20112;-70
2020/12/13 01:35:01;;;;;;;68.75;33.33;;;5.50;99.90;;;;;;5054382;28;20062;-71
2020/12/13 01:37:26;;;;;;;95.13;34.95;;;5.50;99.90;;;;;;5052767;28;20017;-71
2020/12/13 01:39:52;;;;;;;71.78;34.53;;;5.50;99.90;;;;;;5056718;28;20422;-72
2020/12/13 01:42:18;;;;;;;77.35;35.83;;;5.40;99.90;;;;;;5054736;28;20032;-71
2020/12/13 01:44:43;;;;;;;111.22;33.47;;;5.40;99.90;;;;;;5052784;28;20174;-71
2020/12/13 01:47:09;;;;;;;128.65;35.97;;;5.40;99.90;;;;;;5054826;28;20332;-70
2020/12/13 01:49:38;;;;;;;88.05;36.22;;;5.30;99.90;;;;;;5053805;28;20029;-71
2020/12/13 01:55:12;;;;;;;64.05;32.83;;;5.40;99.90;;;;;;5056996;28;20029;-71
2020/12/13 01:57:39;;;;;;;82.20;32.70;;;5.40;99.90;;;;;;5053709;28;20104;-72
2020/12/13 02:00:10;;;;;;;64.50;32.10;;;5.40;99.90;;;;;;5054061;28;20055;-72
2020/12/13 02:02:52;;;;;;;82.45;32.80;;;5.40;99.90;;;;;;5054061;28;20052;-71
2020/12/13 02:05:22;;;;;;;70.00;30.65;;;5.40;99.90;;;;;;5054389;28;20025;-71
2020/12/13 02:07:51;;;;;;;67.82;30.23;;;5.30;99.90;;;;;;5052459;28;20503;-71
2020/12/13 02:10:17;;;;;;;62.55;29.50;;;5.30;99.90;;;;;;5055230;28;20025;-71
2020/12/13 02:12:43;;;;;;;71.57;31.08;;;5.20;99.90;;;;;;5052668;28;20021;-71
2020/12/13 02:15:11;;;;;;;69.82;32.30;;;5.20;99.90;;;;;;5054405;28;20033;-71
2020/12/13 02:17:37;;;;;;;76.40;30.60;;;5.20;99.90;;;;;;5053989;28;20041;-70
2020/12/13 02:20:13;;;;;;;75.43;30.58;;;5.20;99.90;;;;;;5053265;28;20029;-70
2020/12/13 02:22:48;;;;;;;96.18;33.78;;;5.10;99.90;;;;;;5034277;28;20064;-70
2020/12/13 02:25:16;;;;;;;80.93;33.33;;;5.00;99.90;;;;;;5041207;28;20021;-71
2020/12/13 02:27:42;;;;;;;80.60;33.40;;;5.00;99.90;;;;;;5052625;28;20022;-70
2020/12/13 02:30:09;;;;;;;63.83;32.05;;;5.00;99.90;;;;;;5052114;28;20103;-70
2020/12/13 02:32:35;;;;;;;58.08;31.30;;;5.00;99.90;;;;;;5054941;28;20025;-71
2020/12/13 02:35:02;;;;;;;74.70;33.03;;;5.00;99.90;;;;;;5053880;28;20025;-70
2020/12/13 02:37:28;;;;;;;58.30;30.55;;;5.10;99.90;;;;;;5054266;28;20036;-71
2020/12/13 02:39:54;;;;;;;71.30;32.08;;;5.10;99.90;;;;;;5053208;28;20025;-71
2020/12/13 02:42:19;;;;;;;75.93;33.50;;;5.10;99.90;;;;;;5053285;28;20022;-71
2020/12/13 02:44:45;;;;;;;66.05;29.63;;;5.10;99.90;;;;;;5052077;28;20031;-71
2020/12/13 02:47:10;;;;;;;56.78;29.15;;;5.10;99.90;;;;;;5053449;28;20060;-70
2020/12/13 02:49:41;;;;;;;74.15;29.08;;;5.10;99.90;;;;;;5055738;28;20055;-69
2020/12/13 02:52:07;;;;;;;66.03;30.25;;;5.00;99.90;;;;;;5057096;28;20021;-71
2020/12/13 02:54:32;;;;;;;52.80;30.30;;;5.00;99.90;;;;;;5057026;28;20043;-70
2020/12/13 02:56:58;;;;;;;54.05;31.50;;;5.00;99.90;;;;;;5056967;28;20096;-71
2020/12/13 02:59:23;;;;;;;51.75;30.48;;;5.10;99.90;;;;;;5056518;28;20064;-71
2020/12/13 03:01:49;;;;;;;48.90;28.52;;;5.20;99.90;;;;;;5055418;28;20032;-72
2020/12/13 03:04:15;;;;;;;59.78;32.22;;;5.30;99.90;;;;;;5055327;28;20025;-71
2020/12/13 03:06:40;;;;;;;50.25;29.52;;;5.20;99.90;;;;;;5057336;28;20021;-70
2020/12/13 03:09:06;;;;;;;81.63;31.70;;;5.20;99.90;;;;;;5056451;28;20064;-71
2020/12/13 03:11:32;;;;;;;59.80;33.03;;;5.30;99.90;;;;;;5058567;28;20021;-71
2020/12/13 03:13:57;;;;;;;82.80;32.83;;;5.20;99.90;;;;;;5055887;28;20028;-72
2020/12/13 03:16:23;;;;;;;90.68;31.65;;;5.10;99.90;;;;;;5056625;28;20028;-71
2020/12/13 03:18:49;;;;;;;69.95;32.15;;;5.00;99.90;;;;;;5056220;28;20451;-70
2020/12/13 03:21:14;;;;;;;85.43;33.85;;;5.00;99.90;;;;;;5055664;28;20063;-71
2020/12/13 03:23:40;;;;;;;117.55;36.20;;;4.90;99.90;;;;;;5056884;28;20018;-71
2020/12/13 03:26:06;;;;;;;77.03;32.85;;;4.80;99.90;;;;;;5056757;28;20025;-70
2020/12/13 03:28:31;;;;;;;95.60;35.60;;;4.70;99.90;;;;;;5057976;28;20020;-70
2020/12/13 03:30:57;;;;;;;89.03;35.40;;;4.70;99.90;;;;;;5055291;28;20025;-71
2020/12/13 03:33:23;;;;;;;79.35;35.33;;;4.70;99.90;;;;;;5056771;28;20025;-71
2020/12/13 03:35:49;;;;;;;83.57;34.97;;;4.70;99.90;;;;;;5055051;28;20501;-71
2020/12/13 03:38:15;;;;;;;76.22;34.35;;;4.60;99.90;;;;;;5056368;28;20498;-72
2020/12/13 03:40:40;;;;;;;87.78;34.70;;;4.70;99.90;;;;;;5057238;28;20036;-70
2020/12/13 03:43:06;;;;;;;62.75;33.97;;;4.60;99.90;;;;;;5057960;28;20029;-70
2020/12/13 03:45:32;;;;;;;75.88;34.65;;;4.50;99.90;;;;;;5056406;28;20360;-72
2020/12/13 03:47:57;;;;;;;62.28;32.97;;;4.60;99.90;;;;;;5055763;28;20029;-71
2020/12/13 03:50:23;;;;;;;58.17;31.38;;;4.60;99.90;;;;;;5055921;28;20107;-71
2020/12/13 03:52:49;;;;;;;57.15;32.22;;;4.50;99.90;;;;;;5056671;28;20033;-70
2020/12/13 03:55:14;;;;;;;54.88;30.92;;;4.60;99.90;;;;;;5055626;28;20029;-70
2020/12/13 03:57:40;;;;;;;52.95;29.58;;;4.50;99.90;;;;;;5056326;28;20035;-71
2020/12/13 04:00:07;;;;;;;61.38;29.80;;;4.50;99.90;;;;;;5053523;28;20018;-70
2020/12/13 04:02:32;;;;;;;51.17;29.08;;;4.50;99.90;;;;;;5055916;28;20033;-72
2020/12/13 04:04:58;;;;;;;61.28;31.95;;;4.50;99.90;;;;;;5056025;28;20029;-70
2020/12/13 04:07:23;;;;;;;57.50;30.25;;;4.50;99.90;;;;;;5054898;28;20036;-70
2020/12/13 04:09:49;;;;;;;55.20;30.17;;;4.40;99.90;;;;;;5055477;28;20115;-71
2020/12/13 04:12:15;;;;;;;50.10;31.73;;;4.40;99.90;;;;;;5054659;28;20032;-70
2020/12/13 04:14:40;;;;;;;55.88;32.58;;;4.40;99.90;;;;;;5034856;28;20095;-70
2020/12/13 04:17:06;;;;;;;54.33;31.13;;;4.50;99.90;;;;;;5037577;28;20022;-71
2020/12/13 04:19:31;;;;;;;49.75;29.75;;;4.40;99.90;;;;;;5035686;28;20152;-71
2020/12/13 04:21:58;;;;;;;47.75;28.70;;;4.40;99.90;;;;;;5035928;28;20033;-72
2020/12/13 04:24:24;;;;;;;46.17;28.25;;;4.40;99.90;;;;;;5042350;28;20454;-70
2020/12/13 04:26:49;;;;;;;43.42;28.23;;;4.40;99.90;;;;;;5054814;28;20478;-71
2020/12/13 04:29:15;;;;;;;45.80;27.67;;;4.40;99.90;;;;;;5055449;28;20108;-70
2020/12/13 04:31:41;;;;;;;45.30;27.90;;;4.50;99.90;;;;;;5054975;28;20359;-70
2020/12/13 04:34:06;;;;;;;44.72;27.48;;;4.50;99.90;;;;;;5056581;28;20060;-70
2020/12/13 04:36:32;;;;;;;46.65;27.25;;;4.50;99.90;;;;;;5055142;28;20057;-70
2020/12/13 04:38:57;;;;;;;81.10;29.02;;;4.50;99.90;;;;;;5055466;28;20474;-70
2020/12/13 04:41:23;;;;;;;62.72;28.70;;;4.50;99.90;;;;;;5055465;28;20035;-70
2020/12/13 04:43:49;;;;;;;72.75;29.90;;;4.40;99.90;;;;;;5055451;28;20027;-71
2020/12/13 04:46:15;;;;;;;57.55;28.92;;;4.40;99.90;;;;;;5054087;28;20063;-70
2020/12/13 04:48:41;;;;;;;72.30;29.55;;;4.40;99.90;;;;;;5055258;28;20029;-72
2020/12/13 04:51:08;;;;;;;78.20;29.20;;;4.40;99.90;;;;;;5055267;28;20051;-72
2020/12/13 04:53:38;;;;;;;73.22;27.35;;;4.40;99.90;;;;;;5054868;28;20112;-71
2020/12/13 04:56:10;;;;;;;79.28;27.85;;;4.40;99.90;;;;;;5054999;28;20032;-72
2020/12/13 04:58:36;;;;;;;71.93;27.73;;;4.40;99.90;;;;;;5054326;28;20032;-71
2020/12/13 05:01:03;;;;;;;49.90;27.95;;;4.30;99.90;;;;;;5054404;28;20024;-70
2020/12/13 05:03:30;;;;;;;55.33;27.23;;;4.30;99.90;;;;;;5054260;28;20457;-70
2020/12/13 05:06:03;;;;;;;61.00;28.58;;;4.30;99.90;;;;;;5053517;28;20025;-71
2020/12/13 05:08:30;;;;;;;62.85;27.13;;;4.30;99.90;;;;;;5055148;28;20462;-70
2020/12/13 05:10:56;;;;;;;78.57;28.38;;;4.30;99.90;;;;;;5053519;28;20047;-71
2020/12/13 05:13:22;;;;;;;49.67;26.73;;;4.20;99.90;;;;;;5054151;28;20382;-71
2020/12/13 05:15:48;;;;;;;64.60;28.80;;;4.20;99.90;;;;;;5054840;28;20443;-71
2020/12/13 05:18:14;;;;;;;61.10;28.13;;;4.20;99.90;;;;;;5054524;28;20033;-70
2020/12/13 05:20:39;;;;;;;61.58;28.58;;;4.20;99.90;;;;;;5053236;28;20120;-70
2020/12/13 05:23:07;;;;;;;110.43;29.88;;;4.20;99.90;;;;;;5056572;28;20104;-70
2020/12/13 05:25:37;;;;;;;73.05;28.20;;;4.10;99.90;;;;;;5054157;28;20033;-70
2020/12/13 05:28:08;;;;;;;45.60;27.45;;;4.10;99.90;;;;;;5054281;28;20112;-71
2020/12/13 05:30:42;;;;;;;53.53;26.48;;;4.10;99.90;;;;;;5055182;28;20115;-71
2020/12/13 05:33:16;;;;;;;44.58;27.02;;;4.20;99.90;;;;;;5054616;28;20030;-72
2020/12/13 05:35:41;;;;;;;54.50;27.17;;;4.20;99.90;;;;;;5053676;28;20017;-71
2020/12/13 05:38:09;;;;;;;81.38;28.63;;;4.20;99.90;;;;;;5055743;28;20025;-70
2020/12/13 05:40:35;;;;;;;63.85;26.63;;;4.20;99.90;;;;;;5053989;28;20335;-70
2020/12/13 05:43:07;;;;;;;48.13;26.05;;;4.10;99.90;;;;;;5053809;28;20491;-71
2020/12/13 05:45:48;;;;;;;50.20;27.88;;;4.10;99.90;;;;;;5055387;28;20033;-70
2020/12/13 05:51:40;;;;;;;48.00;26.23;;;4.10;99.90;;;;;;5054011;28;20041;-71
2020/12/13 05:53:36;;;;;;;64.15;26.70;;;4.10;99.90;;;;;;5057782;28;20111;-70
2020/12/13 05:56:03;;;;;;;49.10;27.77;;;4.10;99.90;;;;;;5055559;28;20013;-71
2020/12/13 05:58:30;;;;;;;65.93;28.15;;;4.10;99.90;;;;;;5053632;28;20111;-71
2020/12/13 06:00:57;;;;;;;51.40;26.98;;;4.10;99.90;;;;;;5053526;28;20071;-71
2020/12/13 06:03:40;;;;;;;50.10;28.40;;;4.00;99.90;;;;;;5053242;28;20037;-71
2020/12/13 06:06:09;;;;;;;66.00;28.65;;;4.00;99.90;;;;;;5053748;28;20053;-71
2020/12/13 06:08:59;;;;;;;58.80;29.07;;;4.00;99.90;;;;;;5054321;28;20071;-70
2020/12/13 06:11:46;;;;;;;48.22;27.85;;;4.00;99.90;;;;;;5052516;28;20029;-70
2020/12/13 06:14:20;;;;;;;66.60;28.95;;;4.00;99.90;;;;;;5039288;28;20108;-71
2020/12/13 06:16:48;;;;;;;72.05;28.77;;;4.10;99.90;;;;;;5052852;28;20552;-70
2020/12/13 06:19:36;;;;;;;72.38;30.48;;;4.00;99.90;;;;;;5053065;28;20025;-71
2020/12/13 06:22:03;;;;;;;98.35;33.00;;;4.10;99.90;;;;;;5053676;28;20467;-71
2020/12/13 06:24:29;;;;;;;79.03;31.13;;;4.10;99.90;;;;;;5056445;28;20433;-69
2020/12/13 06:26:56;;;;;;;81.25;32.95;;;4.10;99.90;;;;;;5057683;28;20092;-71
2020/12/13 06:29:24;;;;;;;141.10;32.42;;;4.10;99.90;;;;;;5057966;28;20386;-71
2020/12/13 06:31:51;;;;;;;170.32;36.80;;;4.00;99.90;;;;;;5056559;28;20021;-70
2020/12/13 06:34:17;;;;;;;168.73;38.08;;;4.00;99.90;;;;;;5058284;28;20025;-70
2020/12/13 06:36:43;;;;;;;111.43;37.63;;;4.00;99.90;;;;;;5057365;28;20094;-71
2020/12/13 06:39:14;;;;;;;68.82;36.63;;;4.00;99.90;;;;;;5057039;28;20025;-70
2020/12/13 06:41:50;;;;;;;68.03;35.85;;;4.10;99.90;;;;;;5056511;28;20033;-71
2020/12/13 06:44:17;;;;;;;78.75;35.13;;;4.20;99.90;;;;;;5058916;28;20021;-71
2020/12/13 06:46:45;;;;;;;60.17;34.75;;;4.20;99.90;;;;;;5056354;28;20102;-70
2020/12/13 06:49:13;;;;;;;69.10;34.25;;;4.30;99.90;;;;;;5057233;28;20037;-72
2020/12/13 06:51:40;;;;;;;65.18;33.22;;;4.30;99.90;;;;;;5057482;28;20021;-72
2020/12/13 06:54:11;;;;;;;70.78;34.17;;;4.30;99.90;;;;;;5058480;28;20024;-72
2020/12/13 06:56:38;;;;;;;66.63;34.75;;;4.30;99.90;;;;;;5057093;28;20101;-72
2020/12/13 06:59:06;;;;;;;58.38;34.60;;;4.30;99.90;;;;;;5057202;28;20027;-70
2020/12/13 07:01:36;;;;;;;56.10;32.58;;;4.30;99.90;;;;;;5037619;28;20549;-71
2020/12/13 07:04:21;;;;;;;64.05;35.55;;;4.20;99.90;;;;;;5037469;28;20026;-71
2020/12/13 07:09:23;;;;;;;65.97;37.30;;;4.20;99.90;;;;;;5037566;28;20076;-72
2020/12/13 07:11:51;;;;;;;73.32;34.95;;;4.20;99.90;;;;;;5038230;28;20056;-71
2020/12/13 07:14:18;;;;;;;90.50;33.53;;;4.20;99.90;;;;;;5056934;28;20021;-71
2020/12/13 07:16:49;;;;;;;117.90;35.92;;;4.10;99.90;;;;;;5055795;28;20021;-72
2020/12/13 07:19:17;;;;;;;64.68;32.78;;;4.10;99.90;;;;;;5055411;28;20025;-71
2020/12/13 07:21:44;;;;;;;63.72;33.05;;;4.10;99.90;;;;;;5055605;28;20370;-70
2020/12/13 07:24:11;;;;;;;69.20;32.05;;;4.20;99.90;;;;;;5057496;28;20470;-71
2020/12/13 07:26:38;;;;;;;58.33;32.25;;;4.30;99.90;;;;;;5057735;28;20044;-70
2020/12/13 07:29:15;;;;;;;51.00;32.53;;;4.30;99.90;;;;;;5056859;28;20032;-72
2020/12/13 07:31:44;;;;;;;60.45;32.90;;;4.40;99.90;;;;;;5057250;28;20423;-71
2020/12/13 07:34:10;;;;;;;;;;;4.40;99.90;;;;;;5057805;28;20023;-71
2020/12/13 07:36:37;;;;;;;72.70;31.67;;;4.40;99.90;;;;;;5054116;28;19904;-71
2020/12/13 07:39:05;;;;;;;60.03;32.72;;;4.40;99.90;;;;;;5056414;28;20032;-72
2020/12/13 07:41:32;;;;;;;58.92;32.92;;;4.50;99.90;;;;;;5057113;28;20516;-71
2020/12/13 07:44:06;;;;;;;63.47;32.67;;;4.40;99.90;;;;;;5058285;28;20081;-71
2020/12/13 07:46:33;;;;;;;63.83;33.65;;;4.50;99.90;;;;;;5056797;28;20025;-72
2020/12/13 07:49:08;;;;;;;62.00;34.15;;;4.40;99.90;;;;;;5058336;28;20025;-72
2020/12/13 07:51:36;;;;;;;58.70;33.47;;;4.40;99.90;;;;;;5056459;28;20056;-70
2020/12/13 07:54:28;;;;;;;62.45;33.13;;;4.40;99.90;;;;;;5056140;28;20049;-71
2020/12/13 07:56:54;;;;;;;78.30;35.22;;;4.50;99.90;;;;;;5056572;28;20021;-70
2020/12/13 07:59:25;;;;;;;71.40;37.15;;;4.40;99.90;;;;;;5055907;28;20028;-71
2020/12/13 08:01:52;;;;;;;74.47;36.33;;;4.40;99.90;;;;;;5058252;28;20025;-71
2020/12/13 08:04:37;;;;;;;76.68;37.58;;;4.40;99.90;;;;;;5054609;28;20078;-71
2020/12/13 08:07:12;;;;;;;68.93;37.20;;;4.40;99.90;;;;;;5055802;28;20028;-72
2020/12/13 08:09:41;;;;;;;92.53;38.10;;;4.50;99.90;;;;;;5055622;28;20032;-72
2020/12/13 08:12:11;;;;;;;83.07;36.00;;;4.60;99.90;;;;;;5055592;28;20063;-71
2020/12/13 08:14:36;;;;;;;;;;;4.60;99.90;;;;;;5056133;28;20047;-72
2020/12/13 08:17:02;;;;;;;68.90;36.33;;;4.50;99.90;;;;;;5056408;28;19904;-71
2020/12/13 08:19:48;;;;;;;91.63;37.17;;;4.50;99.90;;;;;;5056620;28;20029;-72
2020/12/13 08:22:15;;;;;;;76.93;39.72;;;4.60;99.90;;;;;;5056657;28;20025;-72
2020/12/13 08:24:42;;;;;;;64.97;36.50;;;4.60;99.90;;;;;;5050719;28;20036;-71
2020/12/13 08:27:11;;;;;;;66.78;36.35;;;4.70;99.90;;;;;;5054067;28;20118;-71
2020/12/13 08:29:37;;;;;;;69.45;36.25;;;4.70;99.90;;;;;;5054072;28;20029;-72
2020/12/13 08:32:11;;;;;;;103.63;36.78;;;4.80;99.90;;;;;;5055245;28;20032;-71
2020/12/13 08:34:37;;;;;;;69.70;38.17;;;4.70;99.90;;;;;;5054870;28;20469;-70
2020/12/13 08:37:03;;;;;;;67.95;35.22;;;4.70;99.90;;;;;;5054717;28;20029;-71
2020/12/13 08:39:31;;;;;;;71.40;36.88;;;4.90;99.90;;;;;;5058029;28;20029;-71
2020/12/13 08:42:01;;;;;;;69.28;36.13;;;4.90;99.90;;;;;;5055101;28;20509;-71
2020/12/13 08:44:38;;;;;;;71.13;38.20;;;4.90;99.90;;;;;;5054775;28;20021;-71
2020/12/13 08:47:11;;;;;;;85.30;37.63;;;5.00;99.90;;;;;;5054917;28;20467;-72
2020/12/13 08:49:41;;;;;;;71.20;38.55;;;5.00;99.90;;;;;;5054501;28;20029;-71
2020/12/13 08:52:27;;;;;;;84.28;38.88;;;5.00;99.90;;;;;;5055531;28;20032;-72
2020/12/13 08:54:54;;;;;;;79.13;38.13;;;5.10;99.90;;;;;;5057850;28;20059;-71
2020/12/13 08:57:29;;;;;;;70.28;37.38;;;5.10;99.90;;;;;;5055887;28;20031;-70
2020/12/13 08:59:59;;;;;;;74.05;38.55;;;5.10;99.90;;;;;;5054545;28;20053;-71
2020/12/13 09:02:25;;;;;;;;;;;5.30;99.90;;;;;;5038763;28;20115;-71
2020/12/13 09:04:55;;;;;;;71.75;40.58;;;5.20;99.90;;;;;;5055299;28;19909;-72
2020/12/13 09:07:21;;;;;;;73.35;37.72;;;5.30;99.90;;;;;;5054888;28;20056;-71
2020/12/13 09:09:47;;;;;;;72.22;38.67;;;5.40;99.90;;;;;;5056929;28;20028;-69
2020/12/13 09:12:18;;;;;;;70.07;37.33;;;5.50;99.90;;;;;;5053529;28;20021;-70
2020/12/13 09:14:44;;;;;;;70.28;38.63;;;5.50;99.90;;;;;;5046874;28;20026;-73
2020/12/13 09:17:10;;;;;;;68.60;37.40;;;5.50;99.90;;;;;;5041422;28;20036;-72
2020/12/13 09:19:49;;;;;;;64.70;37.53;;;5.50;99.90;;;;;;5051994;28;20498;-72
2020/12/13 09:22:22;;;;;;;61.22;36.90;;;5.40;99.90;;;;;;5053423;28;20078;-71
2020/12/13 09:24:49;;;;;;;49.45;33.40;;;5.30;99.90;;;;;;5058221;28;20044;-70
2020/12/13 09:27:18;;;;;;;58.90;36.00;;;5.20;99.90;;;;;;5054306;28;20051;-71
2020/12/13 09:29:45;;;;;;;54.15;33.67;;;5.20;99.90;;;;;;5054344;28;20169;-72
2020/12/13 09:32:11;;;;;;;55.42;34.08;;;5.20;99.90;;;;;;5054064;28;20025;-70
2020/12/13 09:34:38;;;;;;;53.58;34.95;;;5.20;99.90;;;;;;5054843;28;20028;-72
2020/12/13 09:37:03;;;;;;;65.78;42.70;;;5.20;99.90;;;;;;5055105;28;20025;-73
2020/12/13 09:39:30;;;;;;;72.95;44.17;;;5.30;99.90;;;;;;5056396;28;20440;-71
2020/12/13 09:41:56;;;;;;;63.88;39.85;;;5.30;99.90;;;;;;5055864;28;20028;-70
2020/12/13 09:44:22;;;;;;;53.88;36.03;;;5.30;99.90;;;;;;5045543;28;20149;-72
2020/12/13 09:46:48;;;;;;;57.72;34.70;;;5.30;99.90;;;;;;5051635;28;20068;-70
2020/12/13 09:49:13;;;;;;;56.90;35.47;;;5.30;99.90;;;;;;5055203;28;20479;-72
2020/12/13 09:51:39;;;;;;;53.83;35.67;;;5.30;99.90;;;;;;5050962;28;20029;-71
2020/12/13 09:54:04;;;;;;;57.40;35.13;;;5.30;99.90;;;;;;5052738;28;20024;-72
2020/12/13 09:56:30;;;;;;;54.63;34.80;;;5.30;99.90;;;;;;5054427;28;20078;-71
2020/12/13 09:58:56;;;;;;;55.90;35.97;;;5.30;99.90;;;;;;5051213;28;20057;-71
2020/12/13 10:01:21;;;;;;;56.25;35.55;;;5.30;99.90;;;;;;5055102;28;20417;-71
2020/12/13 10:03:50;;;;;;;56.97;37.42;;;5.40;99.90;;;;;;5051365;28;20112;-72
2020/12/13 10:11:26;;;;;;;58.70;37.63;;;5.50;99.90;;;;;;5055603;28;20088;-70
2020/12/13 10:13:52;;;;;;;63.45;38.40;;;5.60;99.90;;;;;;5053463;28;20382;-71
2020/12/13 10:16:18;;;;;;;61.35;36.88;;;5.60;99.90;;;;;;5056396;28;20021;-71
2020/12/13 10:18:43;;;;;;;62.75;39.33;;;5.70;99.90;;;;;;5053799;28;20071;-72
2020/12/13 10:21:09;;;;;;;62.38;38.25;;;5.70;99.90;;;;;;5054350;28;20041;-72
2020/12/13 10:23:34;;;;;;;59.55;38.22;;;5.70;99.90;;;;;;5056763;28;20501;-71
2020/12/13 10:26:00;;;;;;;62.22;37.95;;;5.80;99.90;;;;;;5054484;28;20044;-72
2020/12/13 10:28:26;;;;;;;66.82;39.95;;;5.90;99.90;;;;;;5054012;28;20164;-72
2020/12/13 10:30:52;;;;;;;66.35;39.90;;;6.00;99.90;;;;;;5054502;28;20045;-70
2020/12/13 10:33:18;;;;;;;67.93;42.03;;;6.00;99.90;;;;;;5054721;28;20090;-71
2020/12/13 10:35:44;;;;;;;58.40;38.20;;;6.00;99.90;;;;;;5054972;28;20071;-72
2020/12/13 10:38:10;;;;;;;63.83;40.28;;;6.00;99.90;;;;;;5053670;28;20025;-70
2020/12/13 10:40:37;;;;;;;60.97;40.35;;;6.00;99.90;;;;;;5055654;28;20210;-71
2020/12/13 10:43:04;;;;;;;62.33;39.25;;;6.10;99.90;;;;;;5057341;28;20032;-70
2020/12/13 10:45:30;;;;;;;61.42;40.05;;;6.10;99.90;;;;;;5055631;28;20082;-71
2020/12/13 10:47:55;;;;;;;62.70;39.22;;;6.20;99.90;;;;;;5053133;28;20037;-72
2020/12/13 10:50:21;;;;;;;57.60;38.92;;;6.30;99.90;;;;;;5057282;28;20382;-71
2020/12/13 10:52:46;;;;;;;62.45;39.45;;;6.30;99.90;;;;;;5054036;28;20067;-71
2020/12/13 10:55:12;;;;;;;59.83;38.92;;;6.40;99.90;;;;;;5052593;28;20063;-71
2020/12/13 10:57:38;;;;;;;59.80;39.33;;;6.50;99.90;;;;;;5057634;28;20462;-72
2020/12/13 11:00:04;;;;;;;62.10;38.47;;;6.60;99.90;;;;;;5054736;28;20025;-72
2020/12/13 11:02:30;;;;;;;60.92;38.28;;;6.70;99.90;;;;;;5053509;28;20033;-72
2020/12/13 11:04:56;;;;;;;58.55;38.13;;;6.70;99.90;;;;;;5054022;28;20033;-71
2020/12/13 11:07:21;;;;;;;56.92;36.90;;;6.80;99.90;;;;;;5055861;28;20074;-71
2020/12/13 11:09:47;;;;;;;55.22;35.83;;;6.90;99.90;;;;;;5055677;28;20104;-71
2020/12/13 11:12:12;;;;;;;56.08;37.55;;;7.00;99.90;;;;;;5060911;28;20086;-72
2020/12/13 11:14:38;;;;;;;53.35;37.38;;;7.20;99.90;;;;;;5057984;28;20028;-72
2020/12/13 11:17:04;;;;;;;57.75;38.60;;;7.20;99.90;;;;;;5056794;28;20360;-70
2020/12/13 11:19:29;;;;;;;57.00;37.92;;;7.30;99.90;;;;;;5056825;28;20083;-72
2020/12/13 11:21:57;;;;;;;52.10;35.60;;;7.40;99.90;;;;;;5059282;28;20047;-72
2020/12/13 11:24:23;;;;;;;54.47;36.72;;;7.40;99.90;;;;;;5056331;28;20498;-71
2020/12/13 11:26:48;;;;;;;54.85;36.60;;;7.40;99.90;;;;;;5057595;28;20474;-72
2020/12/13 11:29:14;;;;;;;54.55;35.88;;;7.50;99.90;;;;;;5055059;28;20068;-72
2020/12/13 11:31:39;;;;;;;56.03;37.13;;;7.50;99.90;;;;;;5057047;28;20108;-72
2020/12/13 11:34:05;;;;;;;54.63;37.08;;;7.60;99.90;;;;;;5056991;28;20028;-72
2020/12/13 11:36:31;;;;;;;54.20;36.30;;;7.70;99.90;;;;;;5056847;28;20025;-72
2020/12/13 11:38:56;;;;;;;54.72;36.97;;;7.80;99.90;;;;;;5056067;28;20087;-71
2020/12/13 11:41:26;;;;;;;53.85;34.95;;;7.90;99.90;;;;;;5056321;28;20029;-69
2020/12/13 11:43:52;;;;;;;53.22;35.53;;;8.00;99.90;;;;;;5057034;28;20375;-71
2020/12/13 11:46:17;;;;;;;48.88;32.83;;;8.10;99.90;;;;;;5056832;28;20454;-70
2020/12/13 11:48:43;;;;;;;50.65;33.78;;;8.20;99.90;;;;;;5054371;28;20120;-71
2020/12/13 11:51:09;;;;;;;50.30;34.50;;;8.20;99.90;;;;;;5053322;28;20028;-71
2020/12/13 11:53:34;;;;;;;49.42;33.92;;;8.60;99.90;;;;;;5053199;28;20490;-72
2020/12/13 11:56:00;;;;;;;52.97;34.22;;;10.40;99.90;;;;;;5058013;28;20025;-71
2020/12/13 11:58:25;;;;;;;47.72;32.33;;;11.50;99.90;;;;;;5053230;28;20021;-72
2020/12/13 12:00:51;;;;;;;50.85;33.08;;;11.20;99.90;;;;;;5052856;28;20025;-72
2020/12/13 12:03:16;;;;;;;48.03;32.88;;;11.70;99.90;;;;;;5053710;28;20021;-72
2020/12/13 12:05:42;;;;;;;48.83;31.92;;;12.00;99.90;;;;;;5054736;28;20158;-72
2020/12/13 12:08:07;;;;;;;44.60;31.58;;;12.50;99.90;;;;;;5057134;28;20068;-71
2020/12/13 12:10:33;;;;;;;51.53;32.00;;;12.20;99.90;;;;;;5055428;28;20082;-71
2020/12/13 12:12:59;;;;;;;46.45;29.75;;;12.90;99.90;;;;;;5058972;28;20483;-72
2020/12/13 12:15:24;;;;;;;45.50;32.70;;;13.70;99.90;;;;;;5054845;28;20029;-72
2020/12/13 12:17:50;;;;;;;39.47;28.50;;;13.70;99.90;;;;;;5055002;28;20104;-72
2020/12/13 12:20:19;;;;;;;40.35;27.90;;;14.10;99.90;;;;;;5055794;28;20040;-72
2020/12/13 12:22:47;;;;;;;33.00;24.00;;;15.50;99.90;;;;;;5054488;28;20035;-71
2020/12/13 12:25:13;;;;;;;38.58;26.15;;;16.10;99.90;;;;;;5056579;28;20029;-72
2020/12/13 12:27:39;;;;;;;36.13;26.25;;;16.70;99.90;;;;;;5054958;28;20071;-71
2020/12/13 12:30:08;;;;;;;38.40;27.17;;;17.40;99.90;;;;;;5055811;28;20061;-72
2020/12/13 12:32:33;;;;;;;35.92;24.95;;;18.20;99.90;;;;;;5055367;28;20070;-71
2020/12/13 12:34:59;;;;;;;31.40;23.70;;;19.00;99.90;;;;;;5055812;28;20025;-72
2020/12/13 12:37:26;;;;;;;33.65;24.48;;;19.60;99.90;;;;;;5055416;28;20021;-72
2020/12/13 12:39:51;;;;;;;30.15;22.77;;;20.40;98.60;;;;;;5055874;28;20171;-73
2020/12/13 12:42:17;;;;;;;32.03;23.83;;;21.40;96.50;;;;;;5055368;28;20021;-71
2020/12/13 12:44:45;;;;;;;32.05;24.38;;;22.20;94.70;;;;;;5056467;28;20082;-73
2020/12/13 12:47:11;;;;;;;29.92;23.75;;;22.80;93.30;;;;;;5055628;28;20494;-72
2020/12/13 12:49:37;;;;;;;31.85;23.38;;;23.30;91.90;;;;;;5054733;28;20039;-71
2020/12/13 12:52:03;;;;;;;29.05;22.92;;;23.60;90.70;;;;;;5055304;28;20025;-73